createdAt,value
2016-02-19T00:00:27.078Z,1017.05
2016-02-19T00:01:37.221Z,1017.06
2016-02-19T00:02:21.177Z,1017.05
2016-02-19T00:03:24.258Z,1017.04
2016-02-19T00:04:33.838Z,1017.07
2016-02-19T00:05:59.516Z,1017.08
2016-02-19T00:08:06.053Z,1017.1
2016-02-19T00:08:49.930Z,1017.08
2016-02-19T00:09:59.480Z,1017.08
2016-02-19T00:11:25.154Z,1017.11
2016-02-19T00:12:34.673Z,1017.12
2016-02-19T00:13:40.771Z,1017.12
2016-02-19T00:14:50.478Z,1017.07
2016-02-19T00:15:37.743Z,1017.11
2016-02-19T00:16:56.967Z,1017.15
2016-02-19T00:17:37.779Z,1017.14
2016-02-19T00:18:57.004Z,1017.16
2016-02-19T00:19:37.817Z,1017.15
2016-02-19T00:21:03.494Z,1017.13
2016-02-19T00:21:44.965Z,1017.14
2016-02-19T00:22:41.952Z,1017.15
2016-02-19T00:23:45.861Z,1017.11
2016-02-19T00:24:45.864Z,1017.15
2016-02-19T00:25:56.069Z,1017.17
2016-02-19T00:26:59.120Z,1017.1
2016-02-19T00:27:59.153Z,1017.15
2016-02-19T00:28:59.155Z,1017.14
2016-02-19T00:29:59.174Z,1017.16
2016-02-19T00:30:59.181Z,1017.14
2016-02-19T00:32:11.934Z,1017.19
2016-02-19T00:32:59.218Z,1017.18
2016-02-19T00:34:11.954Z,1017.17
2016-02-19T00:35:24.909Z,1017.22
2016-02-19T00:36:27.976Z,1017.19
2016-02-19T00:37:40.730Z,1017.25
2016-02-19T00:38:28.011Z,1017.23
2016-02-19T00:39:37.562Z,1017.24
2016-02-19T00:40:37.564Z,1017.25
2016-02-19T00:41:37.583Z,1017.23
2016-02-19T00:43:03.275Z,1017.25
2016-02-19T00:43:38.213Z,1017.22
2016-02-19T00:46:24.111Z,1017.23
2016-02-19T00:47:24.130Z,1017.18
2016-02-19T00:48:25.554Z,1017.19
2016-02-19T00:49:24.152Z,1017.2
2016-02-19T00:50:33.716Z,1017.2
2016-02-19T00:51:33.735Z,1017.22
2016-02-19T00:52:33.753Z,1017.17
2016-02-19T00:53:43.321Z,1017.17
2016-02-19T00:54:43.324Z,1017.18
2016-02-19T00:55:43.341Z,1017.15
2016-02-19T00:56:56.094Z,1017.13
2016-02-19T00:57:43.363Z,1017.16
2016-02-19T00:59:02.568Z,1017.14
2016-02-19T00:59:46.431Z,1017.16
2016-02-19T01:01:12.121Z,1017.17
2016-02-19T01:01:56.029Z,1017.17
2016-02-19T01:03:05.564Z,1017.17
2016-02-19T01:04:31.254Z,1017.19
2016-02-19T01:05:40.924Z,1017.16
2016-02-19T01:06:15.268Z,1017.18
2016-02-19T01:08:31.038Z,1017.2
2016-02-19T01:09:31.057Z,1017.17
2016-02-19T01:10:31.076Z,1017.13
2016-02-19T01:11:31.093Z,1017.15
2016-02-19T01:12:31.096Z,1017.12
2016-02-19T01:13:43.852Z,1017.12
2016-02-19T01:14:43.870Z,1017.08
2016-02-19T01:15:56.826Z,1017.1
2016-02-19T01:16:31.154Z,1017.12
2016-02-19T01:19:05.553Z,1017.11
2016-02-19T01:19:46.367Z,1017.16
2016-02-19T01:21:12.058Z,1017.14
2016-02-19T01:21:56.140Z,1017.15
2016-02-19T01:23:21.829Z,1017.17
2016-02-19T01:24:00.066Z,1017.16
2016-02-19T01:25:00.101Z,1017.18
2016-02-19T01:27:31.919Z,1017.17
2016-02-19T01:28:51.142Z,1017.16
2016-02-19T01:29:42.098Z,1017.19
2016-02-19T01:31:57.292Z,1017.14
2016-02-19T01:32:57.294Z,1017.2
2016-02-19T01:33:57.312Z,1017.18
2016-02-19T01:36:06.927Z,1017.21
2016-02-19T01:38:07.166Z,1017.14
2016-02-19T01:39:06.966Z,1017.17
2016-02-19T01:40:06.984Z,1017.13
2016-02-19T01:41:07.003Z,1017.14
2016-02-19T01:42:13.271Z,1017.11
2016-02-19T01:43:19.757Z,1017.09
2016-02-19T01:44:07.043Z,1017.08
2016-02-19T01:45:07.060Z,1017.11
2016-02-19T01:46:07.063Z,1017.1
2016-02-19T01:47:07.082Z,1017.06
2016-02-19T01:48:10.162Z,1017.05
2016-02-19T01:49:10.196Z,1017.06
2016-02-19T01:50:10.199Z,1017.06
2016-02-19T01:51:10.217Z,1017.06
2016-02-19T01:52:10.236Z,1017.07
2016-02-19T01:54:25.445Z,1017.04
2016-02-19T01:55:25.462Z,1017.08
2016-02-19T01:56:31.747Z,1017.07
2016-02-19T01:57:25.483Z,1017.09
2016-02-19T01:58:25.502Z,1017.05
2016-02-19T01:59:25.519Z,1017.06
2016-02-19T02:00:26.132Z,1017.05
2016-02-19T02:01:51.215Z,1017.08
2016-02-19T02:02:38.293Z,1017.07
2016-02-19T02:03:25.577Z,1017.03
2016-02-19T02:04:44.786Z,1017.06
2016-02-19T02:05:25.599Z,1017.05
2016-02-19T02:06:25.616Z,1017.02
2016-02-19T02:07:25.635Z,1017.02
2016-02-19T02:08:25.654Z,1017
2016-02-19T02:09:25.672Z,1016.94
2016-02-19T02:10:25.674Z,1016.92
2016-02-19T02:11:25.693Z,1016.97
2016-02-19T02:12:25.710Z,1016.95
2016-02-19T02:13:25.714Z,1016.92
2016-02-19T02:14:25.732Z,1016.88
2016-02-19T02:15:25.750Z,1016.86
2016-02-19T02:16:28.832Z,1016.85
2016-02-19T02:17:28.849Z,1016.81
2016-02-19T02:18:41.590Z,1016.83
2016-02-19T02:19:28.871Z,1016.81
2016-02-19T02:20:38.420Z,1016.8
2016-02-19T02:21:38.439Z,1016.79
2016-02-19T02:22:38.442Z,1016.8
2016-02-19T02:23:53.634Z,1016.85
2016-02-19T02:24:53.699Z,1016.79
2016-02-19T02:25:53.655Z,1016.79
2016-02-19T02:26:53.673Z,1016.8
2016-02-19T02:27:53.692Z,1016.8
2016-02-19T02:28:53.695Z,1016.75
2016-02-19T02:29:53.713Z,1016.79
2016-02-19T02:31:06.465Z,1016.81
2016-02-19T02:32:19.422Z,1016.75
2016-02-19T02:32:53.752Z,1016.78
2016-02-19T02:35:15.227Z,1016.75
2016-02-19T02:36:15.244Z,1016.73
2016-02-19T02:37:15.263Z,1016.73
2016-02-19T02:38:40.955Z,1016.69
2016-02-19T02:39:19.205Z,1016.71
2016-02-19T02:40:19.208Z,1016.74
2016-02-19T02:41:34.413Z,1016.69
2016-02-19T02:42:34.449Z,1016.69
2016-02-19T02:43:34.445Z,1016.7
2016-02-19T02:44:47.194Z,1016.7
2016-02-19T02:45:35.880Z,1016.71
2016-02-19T02:47:00.190Z,1016.67
2016-02-19T02:47:47.083Z,1016.64
2016-02-19T02:48:47.086Z,1016.63
2016-02-19T02:49:47.120Z,1016.63
2016-02-19T02:50:47.139Z,1016.66
2016-02-19T02:51:59.875Z,1016.65
2016-02-19T02:53:06.378Z,1016.6
2016-02-19T02:54:12.834Z,1016.62
2016-02-19T02:56:21.614Z,1016.6
2016-02-19T02:57:02.414Z,1016.58
2016-02-19T02:58:05.494Z,1016.6
2016-02-19T02:59:05.497Z,1016.58
2016-02-19T03:00:05.499Z,1016.55
2016-02-19T03:01:05.518Z,1016.58
2016-02-19T03:02:06.942Z,1016.57
2016-02-19T03:03:05.555Z,1016.54
2016-02-19T03:04:08.588Z,1016.52
2016-02-19T03:05:05.575Z,1016.53
2016-02-19T03:06:18.328Z,1016.53
2016-02-19T03:07:05.612Z,1016.54
2016-02-19T03:08:05.615Z,1016.58
2016-02-19T03:09:24.836Z,1016.56
2016-02-19T03:10:08.698Z,1016.57
2016-02-19T03:11:08.716Z,1016.56
2016-02-19T03:12:08.735Z,1016.6
2016-02-19T03:13:34.424Z,1016.57
2016-02-19T03:14:08.771Z,1016.57
2016-02-19T03:16:18.339Z,1016.58
2016-02-19T03:18:33.516Z,1016.56
2016-02-19T03:19:33.535Z,1016.6
2016-02-19T03:20:39.803Z,1016.59
2016-02-19T03:21:46.293Z,1016.6
2016-02-19T03:22:46.326Z,1016.61
2016-02-19T03:23:33.576Z,1016.61
2016-02-19T03:24:33.595Z,1016.6
2016-02-19T03:25:59.287Z,1016.6
2016-02-19T03:27:08.823Z,1016.59
2016-02-19T03:28:08.825Z,1016.61
2016-02-19T03:29:08.842Z,1016.59
2016-02-19T03:30:08.861Z,1016.59
2016-02-19T03:31:08.880Z,1016.57
2016-02-19T03:32:34.554Z,1016.57
2016-02-19T03:33:28.103Z,1016.58
2016-02-19T03:34:08.919Z,1016.55
2016-02-19T03:35:08.922Z,1016.56
2016-02-19T03:36:08.939Z,1016.54
2016-02-19T03:38:21.711Z,1016.59
2016-02-19T03:39:08.995Z,1016.57
2016-02-19T03:40:34.669Z,1016.55
2016-02-19T03:41:21.563Z,1016.56
2016-02-19T03:42:44.224Z,1016.56
2016-02-19T03:43:18.552Z,1016.58
2016-02-19T03:44:18.571Z,1016.56
2016-02-19T03:45:27.963Z,1016.59
2016-02-19T03:46:27.983Z,1016.55
2016-02-19T03:47:28.001Z,1016.57
2016-02-19T03:48:28.019Z,1016.54
2016-02-19T03:49:28.021Z,1016.56
2016-02-19T03:50:28.040Z,1016.58
2016-02-19T03:51:53.732Z,1016.61
2016-02-19T03:52:37.670Z,1016.64
2016-02-19T03:53:37.689Z,1016.7
2016-02-19T03:54:37.692Z,1016.67
2016-02-19T03:55:50.479Z,1016.69
2016-02-19T03:56:37.729Z,1016.71
2016-02-19T03:58:03.406Z,1016.74
2016-02-19T03:58:47.298Z,1016.74
2016-02-19T03:59:47.317Z,1016.74
2016-02-19T04:00:47.320Z,1016.73
2016-02-19T04:01:47.338Z,1016.72
2016-02-19T04:03:00.091Z,1016.73
2016-02-19T04:03:47.359Z,1016.75
2016-02-19T04:04:47.377Z,1016.7
2016-02-19T04:05:47.395Z,1016.67
2016-02-19T04:07:13.070Z,1016.7
2016-02-19T04:07:47.432Z,1016.7
2016-02-19T04:08:47.450Z,1016.69
2016-02-19T04:10:02.641Z,1016.72
2016-02-19T04:11:02.674Z,1016.68
2016-02-19T04:12:15.411Z,1016.68
2016-02-19T04:13:02.680Z,1016.66
2016-02-19T04:14:21.902Z,1016.72
2016-02-19T04:15:02.716Z,1016.74
2016-02-19T04:17:43.667Z,1016.73
2016-02-19T04:18:17.901Z,1016.76
2016-02-19T04:20:33.751Z,1016.78
2016-02-19T04:21:33.753Z,1016.78
2016-02-19T04:22:33.771Z,1016.81
2016-02-19T04:23:33.774Z,1016.8
2016-02-19T04:24:33.793Z,1016.87
2016-02-19T04:25:33.811Z,1016.86
2016-02-19T04:26:33.814Z,1016.9
2016-02-19T04:27:40.113Z,1016.9
2016-02-19T04:28:59.524Z,1016.86
2016-02-19T04:30:15.356Z,1016.86
2016-02-19T04:32:31.970Z,1016.89
2016-02-19T04:33:31.989Z,1016.91
2016-02-19T04:34:32.007Z,1016.93
2016-02-19T04:35:47.184Z,1016.94
2016-02-19T04:36:47.186Z,1016.93
2016-02-19T04:37:47.205Z,1016.94
2016-02-19T04:38:59.957Z,1016.93
2016-02-19T04:39:59.977Z,1016.94
2016-02-19T04:41:12.932Z,1016.95
2016-02-19T04:42:06.466Z,1016.91
2016-02-19T04:43:24.672Z,1016.94
2016-02-19T04:44:21.862Z,1016.95
2016-02-19T04:45:40.865Z,1016.93
2016-02-19T04:46:23.102Z,1016.95
2016-02-19T04:48:40.013Z,1016.93
2016-02-19T04:49:40.047Z,1016.91
2016-02-19T04:50:59.256Z,1016.92
2016-02-19T04:51:43.118Z,1016.91
2016-02-19T04:52:43.137Z,1016.91
2016-02-19T04:54:23.998Z,1016.91
2016-02-19T04:55:24.109Z,1016.88
2016-02-19T04:56:24.020Z,1016.9
2016-02-19T04:57:24.037Z,1016.92
2016-02-19T04:58:24.056Z,1016.93
2016-02-19T04:59:24.667Z,1016.91
2016-02-19T05:00:24.077Z,1016.96
2016-02-19T05:01:24.095Z,1016.98
2016-02-19T05:02:24.113Z,1016.97
2016-02-19T05:03:24.132Z,1016.99
2016-02-19T05:04:24.134Z,1017.05
2016-02-19T05:05:24.152Z,1017
2016-02-19T05:06:24.156Z,1017.01
2016-02-19T05:07:24.189Z,1017.02
2016-02-19T05:08:24.349Z,1017.04
2016-02-19T05:09:24.210Z,1017.05
2016-02-19T05:10:24.229Z,1017.06
2016-02-19T05:11:24.232Z,1017.04
2016-02-19T05:12:24.249Z,1017.09
2016-02-19T05:13:24.269Z,1017.06
2016-02-19T05:14:24.286Z,1017.08
2016-02-19T05:15:24.304Z,1017.08
2016-02-19T05:16:24.308Z,1017.11
2016-02-19T05:17:24.326Z,1017.15
2016-02-19T05:18:24.344Z,1017.12
2016-02-19T05:19:37.081Z,1017.13
2016-02-19T05:20:30.631Z,1017.13
2016-02-19T05:21:50.027Z,1017.13
2016-02-19T05:22:46.624Z,1017.18
2016-02-19T05:23:46.626Z,1017.17
2016-02-19T05:24:59.362Z,1017.18
2016-02-19T05:25:46.625Z,1017.18
2016-02-19T05:27:05.841Z,1017.25
2016-02-19T05:27:46.649Z,1017.22
2016-02-19T05:29:12.335Z,1017.28
2016-02-19T05:29:56.207Z,1017.3
2016-02-19T05:30:56.207Z,1017.28
2016-02-19T05:32:12.098Z,1017.28
2016-02-19T05:33:12.053Z,1017.31
2016-02-19T05:34:24.804Z,1017.35
2016-02-19T05:35:12.069Z,1017.36
2016-02-19T05:36:31.290Z,1017.32
2016-02-19T05:37:12.089Z,1017.31
2016-02-19T05:38:15.169Z,1017.31
2016-02-19T05:39:30.327Z,1017.28
2016-02-19T05:40:30.344Z,1017.29
2016-02-19T05:41:40.004Z,1017.31
2016-02-19T05:42:49.603Z,1017.29
2016-02-19T05:44:15.293Z,1017.26
2016-02-19T05:44:49.623Z,1017.32
2016-02-19T05:47:30.489Z,1017.38
2016-02-19T05:48:04.835Z,1017.31
2016-02-19T05:50:45.734Z,1017.36
2016-02-19T05:51:20.078Z,1017.36
2016-02-19T05:52:45.770Z,1017.37
2016-02-19T05:53:35.895Z,1017.34
2016-02-19T05:54:35.961Z,1017.41
2016-02-19T05:56:48.530Z,1017.37
2016-02-19T05:57:48.566Z,1017.37
2016-02-19T05:59:03.740Z,1017.39
2016-02-19T06:00:03.757Z,1017.41
2016-02-19T06:01:06.885Z,1017.44
2016-02-19T06:02:06.919Z,1017.44
2016-02-19T06:03:19.657Z,1017.43
2016-02-19T06:04:13.191Z,1017.43
2016-02-19T06:05:06.943Z,1017.43
2016-02-19T06:06:19.687Z,1017.45
2016-02-19T06:08:26.192Z,1017.46
2016-02-19T06:09:07.008Z,1017.41
2016-02-19T06:10:19.760Z,1017.48
2016-02-19T06:12:57.222Z,1017.47
2016-02-19T06:13:31.550Z,1017.53
2016-02-19T06:15:48.167Z,1017.53
2016-02-19T06:16:48.185Z,1017.56
2016-02-19T06:17:48.205Z,1017.55
2016-02-19T06:18:48.207Z,1017.54
2016-02-19T06:20:00.959Z,1017.55
2016-02-19T06:21:07.446Z,1017.53
2016-02-19T06:21:48.261Z,1017.53
2016-02-19T06:22:48.279Z,1017.55
2016-02-19T06:23:48.282Z,1017.57
2016-02-19T06:24:48.316Z,1017.58
2016-02-19T06:25:48.319Z,1017.6
2016-02-19T06:26:48.337Z,1017.58
2016-02-19T06:27:48.356Z,1017.61
2016-02-19T06:28:48.359Z,1017.66
2016-02-19T06:29:48.376Z,1017.68
2016-02-19T06:30:48.395Z,1017.69
2016-02-19T06:31:48.413Z,1017.73
2016-02-19T06:32:48.415Z,1017.75
2016-02-19T06:33:48.434Z,1017.72
2016-02-19T06:34:48.436Z,1017.75
2016-02-19T06:35:48.471Z,1017.8
2016-02-19T06:36:48.473Z,1017.8
2016-02-19T06:37:48.492Z,1017.78
2016-02-19T06:38:48.511Z,1017.81
2016-02-19T06:39:48.529Z,1017.79
2016-02-19T06:40:48.531Z,1017.78
2016-02-19T06:41:48.550Z,1017.79
2016-02-19T06:42:48.567Z,1017.82
2016-02-19T06:45:55.279Z,1017.83
2016-02-19T06:46:55.283Z,1017.88
2016-02-19T06:47:55.910Z,1017.86
2016-02-19T06:48:55.319Z,1017.88
2016-02-19T06:49:55.336Z,1017.88
2016-02-19T06:50:55.339Z,1017.91
2016-02-19T06:51:55.374Z,1017.91
2016-02-19T06:52:55.376Z,1017.88
2016-02-19T06:53:55.395Z,1017.9
2016-02-19T06:54:55.413Z,1017.86
2016-02-19T06:55:55.416Z,1017.85
2016-02-19T06:56:55.434Z,1017.92
2016-02-19T06:58:21.124Z,1017.91
2016-02-19T06:59:04.986Z,1017.92
2016-02-19T07:00:27.285Z,1017.9
2016-02-19T07:01:42.476Z,1017.96
2016-02-19T07:02:42.526Z,1017.93
2016-02-19T07:03:42.496Z,1017.97
2016-02-19T07:04:43.114Z,1017.99
2016-02-19T07:05:48.789Z,1018.02
2016-02-19T07:06:42.542Z,1018.05
2016-02-19T07:08:01.750Z,1018.02
2016-02-19T07:08:42.562Z,1018.01
2016-02-19T07:10:08.255Z,1018.03
2016-02-19T07:11:11.398Z,1018.07
2016-02-19T07:12:20.964Z,1018.07
2016-02-19T07:13:20.981Z,1018.09
2016-02-19T07:14:27.266Z,1018.08
2016-02-19T07:15:21.002Z,1018.06
2016-02-19T07:16:40.225Z,1018.06
2016-02-19T07:17:21.024Z,1018.11
2016-02-19T07:19:36.216Z,1018.12
2016-02-19T07:20:36.344Z,1018.11
2016-02-19T07:21:36.238Z,1018.1
2016-02-19T07:23:01.994Z,1018.12
2016-02-19T07:23:36.275Z,1018.15
2016-02-19T07:25:01.967Z,1018.13
2016-02-19T07:25:49.045Z,1018.17
2016-02-19T07:27:46.473Z,1018.16
2016-02-19T07:30:01.652Z,1018.19
2016-02-19T07:31:01.671Z,1018.2
2016-02-19T07:32:14.407Z,1018.19
2016-02-19T07:33:01.708Z,1018.15
2016-02-19T07:34:20.913Z,1018.19
2016-02-19T07:35:04.978Z,1018.2
2016-02-19T07:36:24.200Z,1018.19
2016-02-19T07:37:08.203Z,1018.2
2016-02-19T07:38:08.112Z,1018.2
2016-02-19T07:39:08.130Z,1018.21
2016-02-19T07:40:27.351Z,1018.23
2016-02-19T07:41:11.276Z,1018.24
2016-02-19T07:42:30.481Z,1018.24
2016-02-19T07:43:24.000Z,1018.28
2016-02-19T07:45:26.583Z,1018.25
2016-02-19T07:46:26.602Z,1018.2
2016-02-19T07:47:26.605Z,1018.22
2016-02-19T07:50:02.424Z,1018.3
2016-02-19T07:50:43.237Z,1018.31
2016-02-19T07:52:08.930Z,1018.31
2016-02-19T07:52:52.836Z,1018.33
2016-02-19T07:54:12.061Z,1018.36
2016-02-19T07:54:59.001Z,1018.36
2016-02-19T07:56:08.660Z,1018.4
2016-02-19T07:57:08.663Z,1018.41
2016-02-19T07:58:21.400Z,1018.38
2016-02-19T07:59:34.371Z,1018.42
2016-02-19T08:00:34.374Z,1018.41
2016-02-19T08:01:49.610Z,1018.37
2016-02-19T08:02:49.567Z,1018.39
2016-02-19T08:04:50.212Z,1018.39
2016-02-19T08:05:49.612Z,1018.37
2016-02-19T08:06:55.898Z,1018.43
2016-02-19T08:07:49.648Z,1018.43
2016-02-19T08:08:49.650Z,1018.47
2016-02-19T08:10:02.421Z,1018.46
2016-02-19T08:10:49.686Z,1018.47
2016-02-19T08:12:08.911Z,1018.47
2016-02-19T08:13:02.523Z,1018.45
2016-02-19T08:14:49.744Z,1018.45
2016-02-19T08:15:49.763Z,1018.44
2016-02-19T08:17:04.941Z,1018.42
2016-02-19T08:18:04.958Z,1018.43
2016-02-19T08:19:04.976Z,1018.42
2016-02-19T08:20:04.980Z,1018.45
2016-02-19T08:21:08.841Z,1018.43
2016-02-19T08:23:11.925Z,1018.47
2016-02-19T08:24:11.943Z,1018.45
2016-02-19T08:25:27.133Z,1018.45
2016-02-19T08:26:27.136Z,1018.47
2016-02-19T08:28:42.345Z,1018.49
2016-02-19T08:29:42.347Z,1018.53
2016-02-19T08:30:45.476Z,1018.52
2016-02-19T08:31:45.493Z,1018.51
2016-02-19T08:34:19.907Z,1018.58
2016-02-19T08:35:19.926Z,1018.57
2016-02-19T08:36:19.929Z,1018.57
2016-02-19T08:37:19.963Z,1018.56
2016-02-19T08:38:35.168Z,1018.58
2016-02-19T08:39:35.186Z,1018.57
2016-02-19T08:40:35.189Z,1018.58
2016-02-19T08:41:35.208Z,1018.57
2016-02-19T08:42:47.975Z,1018.62
2016-02-19T08:43:41.511Z,1018.61
2016-02-19T08:44:54.466Z,1018.6
2016-02-19T08:45:48.000Z,1018.62
2016-02-19T08:48:09.695Z,1018.62
2016-02-19T08:48:50.508Z,1018.63
2016-02-19T08:50:16.200Z,1018.6
2016-02-19T08:51:25.782Z,1018.62
2016-02-19T08:52:19.330Z,1018.61
2016-02-19T08:53:34.538Z,1018.61
2016-02-19T08:54:34.540Z,1018.64
2016-02-19T08:55:34.558Z,1018.65
2016-02-19T08:56:44.138Z,1018.65
2016-02-19T08:57:44.157Z,1018.68
2016-02-19T08:58:59.349Z,1018.65
2016-02-19T08:59:59.368Z,1018.67
2016-02-19T09:00:59.387Z,1018.69
2016-02-19T09:01:59.404Z,1018.68
2016-02-19T09:03:00.845Z,1018.67
2016-02-19T09:03:59.582Z,1018.69
2016-02-19T09:04:59.585Z,1018.73
2016-02-19T09:05:59.556Z,1018.75
2016-02-19T09:07:12.309Z,1018.74
2016-02-19T09:07:59.593Z,1018.76
2016-02-19T09:08:59.564Z,1018.74
2016-02-19T09:09:59.567Z,1018.72
2016-02-19T09:11:25.257Z,1018.76
2016-02-19T09:12:12.182Z,1018.73
2016-02-19T09:13:15.294Z,1018.76
2016-02-19T09:14:15.328Z,1018.77
2016-02-19T09:16:30.520Z,1018.75
2016-02-19T09:17:56.214Z,1018.76
2016-02-19T09:18:39.995Z,1018.77
2016-02-19T09:19:40.013Z,1018.77
2016-02-19T09:20:43.093Z,1018.82
2016-02-19T09:21:43.112Z,1018.86
2016-02-19T09:22:58.305Z,1018.86
2016-02-19T09:23:58.324Z,1018.87
2016-02-19T09:25:11.076Z,1018.88
2016-02-19T09:26:11.094Z,1018.93
2016-02-19T09:27:17.581Z,1018.91
2016-02-19T09:28:24.053Z,1018.91
2016-02-19T09:30:04.932Z,1018.91
2016-02-19T09:31:30.623Z,1018.96
2016-02-19T09:32:15.126Z,1018.92
2016-02-19T09:33:15.129Z,1018.95
2016-02-19T09:34:40.819Z,1019
2016-02-19T09:35:24.743Z,1018.97
2016-02-19T09:36:24.762Z,1018.97
2016-02-19T09:37:24.780Z,1018.98
2016-02-19T09:38:37.534Z,1018.99
2016-02-19T09:39:24.817Z,1018.98
2016-02-19T09:40:44.038Z,1018.98
2016-02-19T09:41:25.447Z,1019.01
2016-02-19T09:42:50.528Z,1019.02
2016-02-19T09:43:34.421Z,1019.06
2016-02-19T09:44:43.940Z,1019.01
2016-02-19T09:45:43.973Z,1019.03
2016-02-19T09:46:43.975Z,1018.99
2016-02-19T09:47:53.541Z,1018.98
2016-02-19T09:50:08.736Z,1018.97
2016-02-19T09:51:08.755Z,1018.94
2016-02-19T09:52:34.446Z,1018.94
2016-02-19T09:53:18.369Z,1018.94
2016-02-19T09:54:18.389Z,1018.95
2016-02-19T09:55:24.672Z,1019
2016-02-19T09:56:24.690Z,1018.99
2016-02-19T09:57:18.443Z,1018.94
2016-02-19T09:58:18.462Z,1018.95
2016-02-19T09:59:40.746Z,1018.93
2016-02-19T10:01:56.785Z,1018.91
2016-02-19T10:04:06.353Z,1018.91
2016-02-19T10:05:06.371Z,1018.95
2016-02-19T10:06:15.936Z,1018.95
2016-02-19T10:07:18.362Z,1018.9
2016-02-19T10:08:18.379Z,1018.94
2016-02-19T10:09:18.398Z,1018.93
2016-02-19T10:10:18.415Z,1018.93
2016-02-19T10:11:31.168Z,1018.93
2016-02-19T10:12:31.186Z,1018.92
2016-02-19T10:13:18.456Z,1018.96
2016-02-19T10:14:37.692Z,1018.99
2016-02-19T10:16:40.697Z,1019.01
2016-02-19T10:17:21.497Z,1019.04
2016-02-19T10:19:08.658Z,1019.06
2016-02-19T10:19:55.908Z,1019.05
2016-02-19T10:21:15.133Z,1019.09
2016-02-19T10:21:55.961Z,1019.09
2016-02-19T10:23:21.639Z,1019.09
2016-02-19T10:24:05.516Z,1019.12
2016-02-19T10:25:31.221Z,1019.15
2016-02-19T10:26:46.522Z,1019.14
2016-02-19T10:27:46.508Z,1019.12
2016-02-19T10:28:46.527Z,1019.12
2016-02-19T10:29:52.810Z,1019.08
2016-02-19T10:30:52.829Z,1019.05
2016-02-19T10:32:05.804Z,1019.04
2016-02-19T10:32:46.616Z,1019.1
2016-02-19T10:35:01.857Z,1019.14
2016-02-19T10:36:01.876Z,1019.1
2016-02-19T10:38:17.084Z,1019.13
2016-02-19T10:39:17.103Z,1019.15
2016-02-19T10:41:33.748Z,1019.14
2016-02-19T10:42:33.768Z,1019.15
2016-02-19T10:43:33.801Z,1019.11
2016-02-19T10:44:46.538Z,1019.14
2016-02-19T10:45:46.557Z,1019.13
2016-02-19T10:46:53.044Z,1019.16
2016-02-19T10:47:33.859Z,1019.19
2016-02-19T10:49:43.427Z,1019.19
2016-02-19T10:50:43.445Z,1019.22
2016-02-19T10:51:43.464Z,1019.2
2016-02-19T10:52:43.467Z,1019.21
2016-02-19T10:53:43.485Z,1019.17
2016-02-19T10:54:49.597Z,1019.18
2016-02-19T10:55:46.584Z,1019.19
2016-02-19T10:58:02.373Z,1019.22
2016-02-19T10:59:02.438Z,1019.22
2016-02-19T11:00:02.410Z,1019.23
2016-02-19T11:01:05.491Z,1019.21
2016-02-19T11:02:31.180Z,1019.25
2016-02-19T11:03:18.261Z,1019.22
2016-02-19T11:05:18.985Z,1019.21
2016-02-19T11:06:15.925Z,1019.21
2016-02-19T11:07:25.476Z,1019.16
2016-02-19T11:08:25.493Z,1019.18
2016-02-19T11:09:31.778Z,1019.2
2016-02-19T11:10:25.546Z,1019.19
2016-02-19T11:11:44.751Z,1019.21
2016-02-19T11:12:38.301Z,1019.2
2016-02-19T11:13:51.257Z,1019.16
2016-02-19T11:14:44.806Z,1019.19
2016-02-19T11:15:28.684Z,1019.18
2016-02-19T11:16:41.437Z,1019.16
2016-02-19T11:17:28.721Z,1019.15
2016-02-19T11:18:43.895Z,1019.17
2016-02-19T11:19:43.976Z,1019.18
2016-02-19T11:20:43.948Z,1019.18
2016-02-19T11:21:56.700Z,1019.16
2016-02-19T11:22:56.719Z,1019.18
2016-02-19T11:24:03.208Z,1019.16
2016-02-19T11:24:44.021Z,1019.2
2016-02-19T11:26:53.574Z,1019.16
2016-02-19T11:29:08.800Z,1019.16
2016-02-19T11:30:08.834Z,1019.15
2016-02-19T11:31:10.258Z,1019.14
2016-02-19T11:32:21.590Z,1019.19
2016-02-19T11:33:11.904Z,1019.17
2016-02-19T11:34:27.720Z,1019.16
2016-02-19T11:35:27.738Z,1019.18
2016-02-19T11:36:27.756Z,1019.16
2016-02-19T11:37:27.775Z,1019.17
2016-02-19T11:38:34.059Z,1019.13
2016-02-19T11:39:27.826Z,1019.15
2016-02-19T11:40:27.846Z,1019.15
2016-02-19T11:41:40.598Z,1019.14
2016-02-19T11:42:27.881Z,1019.16
2016-02-19T11:43:47.087Z,1019.14
2016-02-19T11:44:30.965Z,1019.17
2016-02-19T11:45:56.655Z,1019.15
2016-02-19T11:47:11.848Z,1019.18
2016-02-19T11:48:11.866Z,1019.16
2016-02-19T11:49:11.901Z,1019.18
2016-02-19T11:50:18.169Z,1019.19
2016-02-19T11:51:11.921Z,1019.23
2016-02-19T11:52:11.939Z,1019.21
2016-02-19T11:53:24.708Z,1019.26
2016-02-19T11:54:37.649Z,1019.23
2016-02-19T11:55:24.839Z,1019.3
2016-02-19T11:57:28.297Z,1019.31
2016-02-19T11:58:15.581Z,1019.3
2016-02-19T11:59:41.287Z,1019.31
2016-02-19T12:01:27.839Z,1019.32
2016-02-19T12:02:27.857Z,1019.34
2016-02-19T12:03:27.877Z,1019.37
2016-02-19T12:04:27.894Z,1019.38
2016-02-19T12:05:40.647Z,1019.38
2016-02-19T12:06:27.932Z,1019.35
2016-02-19T12:07:47.152Z,1019.35
2016-02-19T12:08:27.968Z,1019.31
2016-02-19T12:09:53.657Z,1019.36
2016-02-19T12:10:36.770Z,1019.38
2016-02-19T12:11:36.803Z,1019.37
2016-02-19T12:12:36.823Z,1019.41
2016-02-19T12:13:36.840Z,1019.4
2016-02-19T12:14:49.592Z,1019.34
2016-02-19T12:15:38.284Z,1019.37
2016-02-19T12:17:02.569Z,1019.38
2016-02-19T12:17:46.444Z,1019.4
2016-02-19T12:19:08.747Z,1019.35
2016-02-19T12:20:21.719Z,1019.35
2016-02-19T12:21:31.081Z,1019.37
2016-02-19T12:22:37.567Z,1019.33
2016-02-19T12:23:21.320Z,1019.32
2016-02-19T12:24:30.869Z,1019.32
2016-02-19T12:25:40.435Z,1019.37
2016-02-19T12:26:40.452Z,1019.41
2016-02-19T12:27:40.471Z,1019.38
2016-02-19T12:28:55.724Z,1019.37
2016-02-19T12:29:55.743Z,1019.39
2016-02-19T12:32:36.688Z,1019.43
2016-02-19T12:33:11.019Z,1019.44
2016-02-19T12:35:20.555Z,1019.46
2016-02-19T12:37:35.827Z,1019.48
2016-02-19T12:38:35.829Z,1019.47
2016-02-19T12:39:35.863Z,1019.51
2016-02-19T12:40:51.054Z,1019.51
2016-02-19T12:41:51.087Z,1019.48
2016-02-19T12:42:52.573Z,1019.47
2016-02-19T12:44:03.845Z,1019.49
2016-02-19T12:44:51.126Z,1019.47
2016-02-19T12:46:03.882Z,1019.48
2016-02-19T12:46:51.757Z,1019.47
2016-02-19T12:48:16.856Z,1019.49
2016-02-19T12:48:51.809Z,1019.46
2016-02-19T12:50:16.892Z,1019.5
2016-02-19T12:50:51.845Z,1019.48
2016-02-19T12:52:16.930Z,1019.45
2016-02-19T12:52:51.258Z,1019.45
2016-02-19T12:53:51.275Z,1019.48
2016-02-19T12:54:51.311Z,1019.42
2016-02-19T12:55:51.313Z,1019.4
2016-02-19T12:57:06.489Z,1019.34
2016-02-19T12:58:06.508Z,1019.39
2016-02-19T12:59:06.526Z,1019.37
2016-02-19T13:00:06.545Z,1019.4
2016-02-19T13:01:19.297Z,1019.44
2016-02-19T13:02:06.597Z,1019.38
2016-02-19T13:03:25.802Z,1019.42
2016-02-19T13:04:19.352Z,1019.43
2016-02-19T13:06:06.654Z,1019.43
2016-02-19T13:07:06.673Z,1019.43
2016-02-19T13:08:22.348Z,1019.42
2016-02-19T13:09:16.053Z,1019.45
2016-02-19T13:10:31.229Z,1019.45
2016-02-19T13:11:31.231Z,1019.39
2016-02-19T13:12:43.983Z,1019.46
2016-02-19T13:13:31.268Z,1019.45
2016-02-19T13:14:56.957Z,1019.45
2016-02-19T13:16:06.526Z,1019.45
2016-02-19T13:17:53.512Z,1019.47
2016-02-19T13:18:53.531Z,1019.45
2016-02-19T13:19:53.548Z,1019.51
2016-02-19T13:20:53.567Z,1019.46
2016-02-19T13:22:06.322Z,1019.44
2016-02-19T13:23:19.278Z,1019.46
2016-02-19T13:24:23.000Z,1019.48
2016-02-19T13:25:35.143Z,1019.46
2016-02-19T13:26:38.239Z,1019.49
2016-02-19T13:27:38.258Z,1019.47
2016-02-19T13:28:38.276Z,1019.49
2016-02-19T13:29:51.029Z,1019.48
2016-02-19T13:30:51.047Z,1019.46
2016-02-19T13:31:57.534Z,1019.41
2016-02-19T13:32:57.553Z,1019.43
2016-02-19T13:33:38.368Z,1019.44
2016-02-19T13:35:10.216Z,1019.47
2016-02-19T13:37:22.410Z,1019.46
2016-02-19T13:38:22.428Z,1019.51
2016-02-19T13:39:22.446Z,1019.45
2016-02-19T13:40:35.198Z,1019.44
2016-02-19T13:41:22.468Z,1019.5
2016-02-19T13:42:41.705Z,1019.46
2016-02-19T13:43:22.551Z,1019.45
2016-02-19T13:45:54.385Z,1019.45